Time;durP1;ratioP1;P1;durP2;ratioP2;P2;SDS_P1;SDS_P2;PMS_P1;PMS_P2;Temp;Humidity;BMP_temperature;BMP_pressure;BME280_temperature;BME280_humidity;BME280_pressure;Samples;Min_cycle;Max_cycle;Signal;HPM_P1;HPM_P2
2023/05/08 00:02:11;;;;;;;1.90;1.57;;;;;;;18.18;57.31;96918.16;10419781;28;20025;-30
2023/05/08 00:07:12;;;;;;;2.07;1.57;;;;;;;18.16;57.19;96913.09;10392625;28;20030;-29
2023/05/08 00:12:12;;;;;;;2.50;1.63;;;;;;;18.15;57.18;96913.09;10403517;28;20040;-29
2023/05/08 00:17:12;;;;;;;5.28;2.38;;;;;;;18.19;60.47;96915.66;10431254;28;20275;-29
2023/05/08 00:22:13;;;;;;;2.77;1.80;;;;;;;18.38;60.18;96907.28;10403482;28;20030;-30
2023/05/08 00:27:13;;;;;;;2.20;1.23;;;;;;;18.48;59.81;96913.22;10404140;28;20685;-31
2023/05/08 00:32:14;;;;;;;1.38;1.27;;;;;;;18.38;59.35;96909.84;10432540;28;20037;-31
2023/05/08 00:37:15;;;;;;;2.28;1.40;;;;;;;18.28;59.41;96913.16;10406356;28;20033;-30
2023/05/08 00:42:16;;;;;;;3.58;1.38;;;;;;;18.24;58.77;96908.06;10413274;28;20029;-29
2023/05/08 00:47:16;;;;;;;1.77;1.40;;;;;;;18.21;58.25;96913.09;10383817;28;20060;-30
2023/05/08 00:52:18;;;;;;;2.40;1.50;;;;;;;18.20;58.04;96913.94;10407682;28;20467;-29
2023/05/08 00:57:21;;;;;;;2.63;1.13;;;;;;;18.18;57.62;96918.16;10401444;28;20419;-30
2023/05/08 01:02:24;;;;;;;3.15;1.52;;;;;;;18.17;57.29;96921.53;10417862;28;20025;-29
2023/05/08 01:07:24;;;;;;;1.48;1.15;;;;;;;18.16;57.14;96914.78;10422431;28;20032;-30
2023/05/08 01:12:37;;;;;;;2.77;1.47;;;;;;;18.13;57.05;96920.69;10384490;28;20470;-29
2023/05/08 01:17:47;;;;;;;1.52;1.00;;;;;;;18.16;58.09;96923.22;10366565;28;20944;-30
2023/05/08 01:23:17;;;;;;;2.45;1.55;;;;;;;18.37;60.28;96930.97;10412891;28;20509;-30
2023/05/08 01:28:59;;;;;;;3.05;1.50;;;;;;;18.48;59.86;96928.44;10389306;28;20033;-30
2023/05/08 01:34:17;;;;;;;1.60;1.00;;;;;;;18.35;59.12;96926.72;10415572;28;20064;-30
2023/05/08 01:39:21;;;;;;;1.60;1.00;;;;;;;18.27;59.28;96933.41;10417074;28;20026;-30
2023/05/08 01:44:27;;;;;;;2.17;1.30;;;;;;;18.22;58.66;96930.00;10407069;28;20131;-29
2023/05/08 01:49:41;;;;;;;3.40;1.20;;;;;;;18.19;58.35;96925.78;10441713;28;20556;-29
2023/05/08 01:54:47;;;;;;;2.00;1.20;;;;;;;18.17;57.87;96921.53;10419265;28;20056;-29
2023/05/08 01:59:50;;;;;;;2.00;1.33;;;;;;;18.15;57.59;96926.59;10413531;28;20445;-29
2023/05/08 02:04:52;;;;;;;2.55;1.50;;;;;;;18.15;57.35;96929.13;10423373;28;20061;-29
2023/05/08 02:09:54;;;;;;;2.15;1.38;;;;;;;18.14;57.23;96926.59;10428913;28;20036;-31
2023/05/08 02:14:55;;;;;;;1.85;1.30;;;;;;;18.14;57.16;96931.66;10433487;28;20029;-29
2023/05/08 02:19:59;;;;;;;3.35;1.88;;;;;;;18.17;60.40;96929.97;10435360;28;20524;-29
2023/05/08 02:25:00;;;;;;;1.65;1.30;;;;;;;18.38;60.06;96926.72;10430879;28;20033;-29
2023/05/08 02:30:01;;;;;;;1.83;1.40;;;;;;;18.48;59.54;96925.91;10422652;28;20033;-30
2023/05/08 02:35:02;;;;;;;1.27;0.80;;;;;;;18.36;59.41;96926.72;10435195;28;20091;-30
2023/05/08 02:40:07;;;;;;;1.13;0.93;;;;;;;18.26;59.42;96936.78;10404796;28;20030;-30
2023/05/08 02:45:10;;;;;;;2.28;1.50;;;;;;;18.22;58.82;96940.13;10423848;28;20026;-30
2023/05/08 02:50:25;;;;;;;2.22;1.45;;;;;;;18.19;58.32;96930.00;10394602;28;20025;-30
2023/05/08 02:55:32;;;;;;;1.67;1.40;;;;;;;18.17;58.23;96936.75;10374614;28;20022;-30
2023/05/08 03:00:48;;;;;;;1.48;1.10;;;;;;;18.16;57.73;96940.13;10425495;28;20090;-30
2023/05/08 03:05:58;;;;;;;1.73;1.20;;;;;;;18.15;57.42;96946.88;10410324;28;20040;-31
2023/05/08 03:11:05;;;;;;;1.65;0.98;;;;;;;18.14;57.21;96941.78;10416912;28;20029;-30
2023/05/08 03:16:12;;;;;;;1.30;1.20;;;;;;;18.12;57.23;96936.72;10390239;28;20489;-30
2023/05/08 03:21:18;;;;;;;2.05;1.00;;;;;;;18.13;58.00;96928.28;10386660;28;20037;-31
2023/05/08 03:26:20;;;;;;;1.60;1.20;;;;;;;18.33;59.58;96921.63;10406701;28;20173;-29
2023/05/08 03:31:22;;;;;;;1.65;1.38;;;;;;;18.46;60.45;96914.91;10444810;28;20025;-30
2023/05/08 03:36:25;;;;;;;1.73;1.10;;;;;;;18.37;58.76;96915.75;10398302;28;20034;-29
2023/05/08 03:41:26;;;;;;;1.45;0.98;;;;;;;18.27;59.24;96918.19;10437209;28;20035;-30
2023/05/08 03:46:27;;;;;;;2.70;1.10;;;;;;;18.21;59.01;96920.69;10388802;28;20034;-29
2023/05/08 03:51:30;;;;;;;1.30;1.20;;;;;;;18.17;58.24;96921.53;10411187;28;20063;-29
2023/05/08 03:56:32;;;;;;;1.88;1.15;;;;;;;18.15;58.18;96924.06;10404166;28;20030;-30
2023/05/08 04:01:39;;;;;;;1.38;1.05;;;;;;;18.14;58.02;96926.59;10428360;28;20033;-30
2023/05/08 04:06:51;;;;;;;1.23;1.00;;;;;;;18.13;57.43;96929.94;10423962;28;20037;-30
2023/05/08 04:12:05;;;;;;;1.73;1.10;;;;;;;18.13;57.46;96935.03;10425389;28;20029;-29
2023/05/08 04:17:11;;;;;;;2.97;1.52;;;;;;;18.13;57.53;96940.09;10398403;28;20100;-30
2023/05/08 04:22:13;;;;;;;1.27;1.17;;;;;;;18.11;57.15;96939.25;10389084;28;20029;-30
2023/05/08 04:27:15;;;;;;;1.08;0.98;;;;;;;18.28;60.75;96945.25;10407186;28;20030;-30
2023/05/08 04:32:16;;;;;;;1.00;0.90;;;;;;;18.40;61.69;96942.81;10413855;28;20033;-31
2023/05/08 04:37:28;;;;;;;5.72;1.27;;;;;;;18.35;59.53;96950.34;10410360;28;20034;-29
2023/05/08 04:42:32;;;;;;;4.03;1.10;;;;;;;18.26;58.62;96954.53;10390270;28;20033;-29
2023/05/08 04:47:34;;;;;;;3.65;1.20;;;;;;;18.17;58.19;96955.31;10403419;28;20088;-29
2023/05/08 04:52:35;;;;;;;3.25;1.10;;;;;;;18.15;58.72;96958.72;10407668;28;20041;-29
2023/05/08 04:57:35;;;;;;;11.07;1.77;;;;;;;18.14;59.10;96967.13;10410940;28;20059;-29
2023/05/08 05:02:36;;;;;;;4.23;1.40;;;;;;;18.15;58.64;96961.25;10408801;28;20025;-30
2023/05/08 05:07:37;;;;;;;5.65;1.42;;;;;;;18.15;58.14;96966.31;10421909;28;20313;-30
2023/05/08 05:12:37;;;;;;;5.93;1.33;;;;;;;18.14;58.85;96970.50;10406086;28;20055;-30
2023/05/08 05:17:38;;;;;;;4.70;1.08;;;;;;;18.12;57.52;96969.66;10405727;28;20034;-30
2023/05/08 05:22:39;;;;;;;7.35;1.60;;;;;;;18.13;57.32;96970.50;10412689;28;20033;-30
2023/05/08 05:27:39;;;;;;;6.50;1.20;;;;;;;18.21;61.61;96973.91;10390768;28;20406;-31
2023/05/08 05:32:41;;;;;;;4.85;1.45;;;;;;;18.15;66.84;96976.44;10417667;28;20053;-29
2023/05/08 05:37:42;;;;;;;4.55;1.23;;;;;;;18.24;62.19;96984.91;10377063;28;20029;-29
2023/05/08 05:42:48;;;;;;;3.10;1.00;;;;;;;18.22;61.56;96985.75;10418436;28;20057;-31
2023/05/08 05:47:49;;;;;;;1.02;0.85;;;;;;;18.16;61.80;96996.72;10370512;28;20033;-29
2023/05/08 05:52:52;;;;;;;4.25;0.98;;;;;;;18.15;60.79;96999.25;10380349;28;20025;-31
2023/05/08 05:57:53;;;;;;;2.05;1.30;;;;;;;18.14;60.09;96992.47;10402900;28;20124;-29
2023/05/08 06:02:54;;;;;;;4.95;1.45;;;;;;;18.13;59.32;96995.84;10422698;28;20171;-30
2023/05/08 06:07:54;;;;;;;6.38;1.80;;;;;;;18.12;59.00;96996.69;10391552;28;20030;-30
2023/05/08 06:12:55;;;;;;;4.03;1.10;;;;;;;18.11;58.64;96989.91;10367444;28;20026;-29
2023/05/08 06:17:57;;;;;;;3.17;0.90;;;;;;;18.10;58.58;97001.75;10383484;28;20303;-31
2023/05/08 06:22:58;;;;;;;2.28;0.90;;;;;;;18.10;58.12;97000.91;10397270;28;20029;-31
2023/05/08 06:27:58;;;;;;;2.33;1.10;;;;;;;18.12;59.92;97000.06;10394934;28;20040;-29
2023/05/08 06:32:59;;;;;;;1.73;0.80;;;;;;;18.30;59.70;97000.19;10416027;28;20324;-30
2023/05/08 06:38:00;;;;;;;2.73;0.87;;;;;;;18.41;60.35;97006.16;10414900;28;20040;-30
2023/05/08 06:43:00;;;;;;;3.58;0.88;;;;;;;18.34;59.08;97008.66;10394211;28;20469;-30
2023/05/08 06:48:00;;;;;;;0.83;0.70;;;;;;;18.23;59.63;97002.66;10416900;28;20028;-30
2023/05/08 06:53:01;;;;;;;0.83;0.73;;;;;;;18.19;59.50;97008.56;10397276;28;20038;-30
2023/05/08 06:58:01;;;;;;;1.30;0.80;;;;;;;18.15;58.95;97014.47;10398594;28;20029;-30
2023/05/08 07:03:02;;;;;;;3.42;0.90;;;;;;;18.12;58.57;96999.22;10399019;28;20349;-29
2023/05/08 07:08:03;;;;;;;4.13;0.93;;;;;;;18.11;58.19;97002.59;10424135;28;20029;-30
2023/05/08 07:13:03;;;;;;;2.33;1.02;;;;;;;18.11;57.98;97002.59;10401901;28;20519;-30
2023/05/08 07:18:04;;;;;;;1.33;0.70;;;;;;;18.09;57.81;97004.28;10390762;28;20040;-29
2023/05/08 07:23:05;;;;;;;1.83;0.80;;;;;;;18.07;57.74;97009.31;10418285;28;20025;-31
2023/05/08 07:28:06;;;;;;;1.70;0.90;;;;;;;18.08;57.40;97013.53;10401652;28;20032;-30
2023/05/08 07:33:07;;;;;;;1.95;1.10;;;;;;;18.22;60.43;97018.69;10396066;28;20410;-30
2023/05/08 07:38:07;;;;;;;3.60;0.70;;;;;;;18.37;63.04;97017.13;10411321;28;20040;-29
2023/05/08 07:43:08;;;;;;;0.97;0.60;;;;;;;18.34;59.17;97021.34;10407269;28;20033;-30
2023/05/08 07:48:08;;;;;;;0.47;0.45;;;;;;;18.23;59.32;97028.00;10405792;28;20037;-30
2023/05/08 07:53:09;;;;;;;1.25;0.80;;;;;;;18.18;59.09;97029.66;10409295;28;20038;-30
2023/05/08 07:58:09;;;;;;;1.58;0.93;;;;;;;18.14;58.71;97033.88;10430941;28;20039;-30
2023/05/08 08:03:10;;;;;;;1.10;0.60;;;;;;;18.11;58.13;97025.41;10393984;28;20041;-29
2023/05/08 08:08:10;;;;;;;3.27;1.40;;;;;;;18.10;57.94;97036.38;10375824;28;20043;-29
2023/05/08 08:13:10;;;;;;;1.35;0.80;;;;;;;18.10;57.83;97031.31;10397009;28;20059;-30
2023/05/08 08:18:11;;;;;;;3.00;1.00;;;;;;;18.09;57.58;97024.53;10406864;28;20037;-30
2023/05/08 08:23:14;;;;;;;2.55;0.93;;;;;;;18.08;57.52;97022.84;10401357;28;20498;-29
2023/05/08 08:28:14;;;;;;;1.63;0.68;;;;;;;18.08;57.25;97035.53;10440901;28;20451;-30
2023/05/08 08:33:15;;;;;;;2.40;1.00;;;;;;;18.16;60.10;97032.19;10426643;28;20082;-29
2023/05/08 08:38:15;;;;;;;2.20;0.93;;;;;;;18.33;59.02;97029.78;10412305;28;20048;-30
2023/05/08 08:43:16;;;;;;;0.90;0.57;;;;;;;18.39;57.99;97030.66;10396701;28;20763;-30
2023/05/08 08:48:18;;;;;;;0.53;0.50;;;;;;;18.28;59.00;97017.06;10399395;28;20026;-29
2023/05/08 08:53:27;;;;;;;1.13;0.70;;;;;;;18.19;58.96;97022.09;10404334;28;20296;-30
2023/05/08 08:58:32;;;;;;;0.90;0.80;;;;;;;18.15;58.69;97022.06;10386522;28;20025;-30
2023/05/08 09:03:33;;;;;;;3.03;0.90;;;;;;;18.12;58.26;97020.34;10384154;28;20490;-29
2023/05/08 09:08:36;;;;;;;1.13;1.02;;;;;;;18.10;58.11;97023.69;10406116;28;20049;-30
2023/05/08 09:13:36;;;;;;;2.30;0.98;;;;;;;18.10;57.78;97021.16;10425129;28;20036;-30
2023/05/08 09:18:36;;;;;;;1.67;1.20;;;;;;;18.08;57.61;97023.69;10410725;28;20560;-29
2023/05/08 09:23:56;;;;;;;2.17;0.83;;;;;;;18.07;57.58;97027.06;10401705;28;20041;-30
2023/05/08 09:29:08;;;;;;;1.75;0.70;;;;;;;18.08;57.49;97020.31;10406781;28;20041;-29
2023/05/08 09:34:10;;;;;;;2.00;0.98;;;;;;;18.07;57.51;97021.16;10433260;28;20029;-29
2023/05/08 09:39:20;;;;;;;0.75;0.45;;;;;;;18.24;58.99;97027.19;10372967;28;20052;-29
2023/05/08 09:44:22;;;;;;;1.10;0.82;;;;;;;18.38;59.01;97028.13;10400270;28;20038;-30
2023/05/08 09:49:23;;;;;;;0.82;0.50;;;;;;;18.32;58.86;97028.94;10389536;28;20409;-30
2023/05/08 09:54:23;;;;;;;0.60;0.60;;;;;;;18.21;58.91;97027.13;10389436;28;20060;-29
2023/05/08 09:59:25;;;;;;;1.97;0.63;;;;;;;18.17;58.66;97043.19;10388322;28;20037;-30
2023/05/08 10:04:33;;;;;;;0.88;0.60;;;;;;;18.13;58.24;97041.44;10386671;28;20033;-30
2023/05/08 10:09:33;;;;;;;0.93;0.63;;;;;;;18.11;57.94;97048.19;10397054;28;20092;-30
2023/05/08 10:14:34;;;;;;;1.87;0.83;;;;;;;18.10;57.79;97047.38;10407510;28;20068;-30
2023/05/08 10:19:40;;;;;;;0.83;0.60;;;;;;;18.09;57.56;97047.34;10398349;28;20320;-29
2023/05/08 10:24:44;;;;;;;1.55;0.77;;;;;;;18.08;57.42;97045.66;10400222;28;20292;-30
2023/05/08 10:29:55;;;;;;;0.85;0.70;;;;;;;18.09;57.37;97054.94;10422015;28;20413;-30
2023/05/08 10:34:59;;;;;;;0.85;0.60;;;;;;;18.08;57.34;97040.59;10399167;28;20100;-31
2023/05/08 10:40:00;;;;;;;0.77;0.75;;;;;;;18.18;59.22;97039.81;10380087;28;20065;-30
2023/05/08 10:45:03;;;;;;;0.65;0.50;;;;;;;18.35;58.34;97030.66;10420412;28;20029;-29
2023/05/08 10:50:22;;;;;;;1.25;0.70;;;;;;;18.38;57.38;97023.03;10437999;28;20042;-30
2023/05/08 10:55:30;;;;;;;0.50;0.50;;;;;;;18.26;58.50;97017.88;10423625;28;20386;-29
2023/05/08 11:00:52;;;;;;;1.92;0.77;;;;;;;18.20;59.58;97022.91;10408950;28;20382;-29
2023/05/08 11:05:55;;;;;;;5.75;1.17;;;;;;;18.18;60.61;97009.41;10411910;28;20493;-29
2023/05/08 11:10:59;;;;;;;4.45;1.00;;;;;;;18.16;59.39;97006.84;10393529;28;20409;-30
2023/05/08 11:15:59;;;;;;;5.78;1.60;;;;;;;18.16;59.64;97008.53;10421877;28;20064;-29
2023/05/08 11:21:07;;;;;;;4.75;1.20;;;;;;;18.18;61.16;97009.41;10413188;28;20076;-30
2023/05/08 11:26:15;;;;;;;7.25;1.65;;;;;;;18.18;59.01;96994.19;10418283;28;20568;-30
2023/05/08 11:31:15;;;;;;;3.60;1.40;;;;;;;18.15;58.47;96997.53;10437545;28;20029;-29
2023/05/08 11:36:19;;;;;;;4.47;1.30;;;;;;;18.15;58.30;96984.88;10386892;28;20493;-30
2023/05/08 11:41:21;;;;;;;5.75;1.25;;;;;;;18.17;60.71;96987.44;10412053;28;20021;-29
2023/05/08 11:46:31;;;;;;;5.90;1.52;;;;;;;18.38;62.72;96987.56;10387393;28;20056;-29
2023/05/08 11:51:32;;;;;;;5.35;1.05;;;;;;;18.46;62.00;96986.75;10395273;28;20418;-30
2023/05/08 11:56:32;;;;;;;8.00;1.38;;;;;;;18.37;58.36;96985.84;10417513;28;20033;-30
2023/05/08 12:01:33;;;;;;;4.55;1.15;;;;;;;18.28;57.71;96991.72;10390944;28;20339;-30
2023/05/08 12:06:36;;;;;;;3.38;0.80;;;;;;;18.23;57.94;96988.31;10385683;28;20046;-30
2023/05/08 12:11:38;;;;;;;5.03;1.63;;;;;;;18.21;57.77;96984.91;10401986;28;20083;-30
2023/05/08 12:16:38;;;;;;;4.03;1.30;;;;;;;18.19;57.39;96980.69;10434698;28;20643;-31
2023/05/08 12:21:47;;;;;;;3.38;1.00;;;;;;;18.16;57.51;96976.44;10402183;28;20033;-31
2023/05/08 12:26:48;;;;;;;3.75;1.50;;;;;;;18.14;57.46;96967.13;10370381;28;20040;-29
2023/05/08 12:31:49;;;;;;;4.95;1.90;;;;;;;18.14;57.61;96967.13;10420377;28;20562;-30
2023/05/08 12:37:00;;;;;;;6.22;2.40;;;;;;;18.14;57.52;96967.97;10393235;28;20160;-29
2023/05/08 12:42:01;;;;;;;8.07;4.38;;;;;;;18.13;57.39;96970.50;10403856;28;20345;-30
2023/05/08 12:47:03;;;;;;;9.73;2.67;;;;;;;18.32;60.06;96977.41;10441389;28;20044;-29
2023/05/08 12:52:07;;;;;;;5.00;2.13;;;;;;;18.46;62.69;96970.69;10423539;28;20033;-29
2023/05/08 12:57:17;;;;;;;3.38;2.10;;;;;;;18.43;59.51;96979.13;10432585;28;20506;-30
2023/05/08 13:02:22;;;;;;;3.55;2.35;;;;;;;18.31;58.10;96980.75;10435274;28;20041;-30
2023/05/08 13:07:23;;;;;;;5.03;2.20;;;;;;;18.23;57.55;96987.44;10404214;28;20349;-30
2023/05/08 13:12:23;;;;;;;3.22;2.10;;;;;;;18.20;57.47;96984.91;10380032;28;20037;-29
2023/05/08 13:17:23;;;;;;;8.23;1.90;;;;;;;18.16;57.57;96975.59;10415077;28;20040;-30
2023/05/08 13:22:25;;;;;;;1.83;1.73;;;;;;;18.15;57.49;96973.91;10381761;28;20043;-29
2023/05/08 13:27:25;;;;;;;2.92;2.20;;;;;;;18.14;57.40;96972.19;10397349;28;20289;-30
2023/05/08 13:32:26;;;;;;;6.07;1.80;;;;;;;18.11;57.39;96964.59;10402774;28;20045;-30
2023/05/08 13:37:26;;;;;;;4.37;1.70;;;;;;;18.12;57.26;96969.66;10413751;28;20294;-29
2023/05/08 13:42:27;;;;;;;2.03;1.63;;;;;;;18.11;57.17;96956.97;10397279;28;20040;-30
2023/05/08 13:47:27;;;;;;;1.50;1.20;;;;;;;18.19;59.74;96951.13;10405939;28;20041;-30
2023/05/08 13:52:30;;;;;;;1.87;1.30;;;;;;;18.38;63.80;96944.47;10413901;28;20041;-29
2023/05/08 13:57:30;;;;;;;1.60;1.20;;;;;;;18.47;60.27;96950.41;10396268;28;20076;-29
2023/05/08 14:02:31;;;;;;;3.00;1.10;;;;;;;18.38;58.97;96936.84;10384160;28;20079;-30
2023/05/08 14:07:31;;;;;;;2.50;1.33;;;;;;;18.26;57.91;96935.09;10366626;28;20422;-29
2023/05/08 14:12:34;;;;;;;5.60;1.67;;;;;;;18.21;57.22;96935.91;10379444;28;20033;-29
2023/05/08 14:17:35;;;;;;;2.70;1.23;;;;;;;18.18;57.65;96935.91;10387604;28;20056;-30
2023/05/08 14:22:35;;;;;;;3.00;1.20;;;;;;;18.17;57.22;96939.28;10383156;28;20034;-29
2023/05/08 14:27:35;;;;;;;1.37;1.10;;;;;;;18.16;57.35;96935.06;10399814;28;20505;-30
2023/05/08 14:32:36;;;;;;;2.47;1.38;;;;;;;18.16;57.33;96935.06;10414464;28;20382;-29
2023/05/08 14:37:36;;;;;;;3.60;1.60;;;;;;;18.15;57.31;96933.38;10403454;28;20618;-29
2023/05/08 14:42:37;;;;;;;12.10;2.23;;;;;;;18.18;57.65;96934.19;10413257;28;20029;-30
2023/05/08 14:47:38;;;;;;;4.93;2.13;;;;;;;18.18;57.74;96930.84;10413350;28;20040;-30
2023/05/08 14:52:38;;;;;;;12.48;2.65;;;;;;;18.35;61.18;96926.72;10389856;28;20030;-29
2023/05/08 14:57:39;;;;;;;7.37;2.30;;;;;;;18.52;60.52;96930.16;10407373;28;20041;-29
2023/05/08 15:02:39;;;;;;;9.63;1.98;;;;;;;18.50;60.01;96925.06;10410561;28;20651;-31
2023/05/08 15:07:40;;;;;;;15.18;2.63;;;;;;;18.37;60.51;96935.16;10399658;28;20402;-30
2023/05/08 15:12:40;;;;;;;14.77;3.65;;;;;;;18.36;61.79;96944.47;10413052;28;20490;-29
2023/05/08 15:17:41;;;;;;;13.32;2.45;;;;;;;18.31;60.61;96950.34;10410165;28;20030;-29
2023/05/08 15:22:41;;;;;;;11.63;2.80;;;;;;;18.26;59.38;96964.66;10421307;28;20040;-30
2023/05/08 15:27:41;;;;;;;10.90;2.40;;;;;;;18.25;59.21;96976.47;10395950;28;20042;-30
2023/05/08 15:32:42;;;;;;;14.47;2.57;;;;;;;18.22;59.25;96975.63;10427457;28;20045;-30
2023/05/08 15:37:42;;;;;;;10.43;2.17;;;;;;;18.24;60.12;96981.56;10401706;28;20043;-30
2023/05/08 15:42:42;;;;;;;6.30;1.40;;;;;;;18.19;58.96;96983.22;10373383;28;20041;-29
2023/05/08 15:47:43;;;;;;;3.77;1.33;;;;;;;18.19;58.84;96986.59;10430685;28;20394;-29
2023/05/08 15:52:43;;;;;;;6.83;1.20;;;;;;;18.22;60.03;96995.88;10400919;28;20037;-30
2023/05/08 15:57:44;;;;;;;6.43;1.40;;;;;;;18.43;60.37;96996.03;10426732;28;20048;-30
2023/05/08 16:02:46;;;;;;;5.78;1.30;;;;;;;18.54;60.13;96995.25;10376832;28;20669;-29
2023/05/08 16:07:49;;;;;;;2.78;0.90;;;;;;;18.46;59.62;97008.72;10424214;28;20049;-30
2023/05/08 16:12:49;;;;;;;6.30;3.53;;;;;;;18.35;60.65;97006.13;10396102;28;20037;-29
2023/05/08 16:17:50;;;;;;;4.03;0.90;;;;;;;18.22;60.56;97004.34;10417106;28;20044;-29
2023/05/08 16:22:54;;;;;;;3.90;1.40;;;;;;;18.23;59.25;97017.84;10409218;28;20124;-30
2023/05/08 16:27:55;;;;;;;5.72;1.77;;;;;;;18.20;60.48;97017.84;10393997;28;20033;-30
2023/05/08 16:32:55;;;;;;;9.33;1.13;;;;;;;18.19;58.38;97011.09;10419010;28;20060;-29
2023/05/08 16:37:58;;;;;;;1.50;1.20;;;;;;;18.17;58.44;97015.31;10416892;28;20290;-30
2023/05/08 16:42:58;;;;;;;4.35;1.10;;;;;;;18.16;58.08;97008.53;10402738;28;20287;-30
2023/05/08 16:47:59;;;;;;;2.40;1.13;;;;;;;18.16;58.25;97014.44;10430754;28;20455;-30
2023/05/08 16:52:59;;;;;;;1.67;0.87;;;;;;;18.15;58.00;97012.75;10405273;28;20042;-29
2023/05/08 16:58:00;;;;;;;4.82;1.23;;;;;;;18.30;60.59;97014.56;10395481;28;20367;-30
2023/05/08 17:03:00;;;;;;;7.30;1.27;;;;;;;18.46;60.05;97006.19;10386276;28;20424;-29
2023/05/08 17:08:01;;;;;;;2.57;0.83;;;;;;;18.51;59.69;97004.53;10399814;28;20120;-29
2023/05/08 17:13:01;;;;;;;4.27;1.30;;;;;;;18.36;59.45;97006.97;10416490;28;20094;-29
2023/05/08 17:18:01;;;;;;;2.03;0.80;;;;;;;18.28;58.82;97006.06;10412178;28;20033;-30
2023/05/08 17:23:02;;;;;;;8.10;0.90;;;;;;;18.21;58.16;97002.66;10424416;28;20484;-30
2023/05/08 17:28:03;;;;;;;3.93;1.00;;;;;;;18.19;58.03;97009.41;10427693;28;20037;-30
2023/05/08 17:33:03;;;;;;;2.97;0.63;;;;;;;18.16;57.92;97006.00;10419855;28;20102;-30
2023/05/08 17:38:03;;;;;;;2.80;1.57;;;;;;;18.15;57.76;96996.72;10399284;28;20036;-30
2023/05/08 17:43:05;;;;;;;1.97;0.70;;;;;;;18.14;57.64;97002.59;10422608;28;20640;-29
2023/05/08 17:48:05;;;;;;;3.45;0.60;;;;;;;18.13;57.51;97011.03;10425827;28;20292;-30
2023/05/08 17:53:06;;;;;;;4.97;0.90;;;;;;;18.05;61.93;97012.69;10396142;28;20029;-29
2023/05/08 17:58:06;;;;;;;6.25;1.25;;;;;;;17.92;63.67;97019.34;10368142;28;20287;-29
2023/05/08 18:03:07;;;;;;;4.07;0.97;;;;;;;18.25;64.23;97011.13;10387835;28;20482;-29
2023/05/08 18:08:08;;;;;;;7.72;1.33;;;;;;;18.44;61.96;97018.00;10406940;28;20029;-30
2023/05/08 18:13:08;;;;;;;2.85;0.93;;;;;;;18.41;61.48;97023.91;10411705;28;20075;-30
2023/05/08 18:18:09;;;;;;;5.83;1.50;;;;;;;18.29;61.14;97018.78;10391482;28;20578;-30
2023/05/08 18:23:09;;;;;;;1.60;0.93;;;;;;;18.23;60.12;97012.78;10424790;28;20844;-30
2023/05/08 18:28:09;;;;;;;4.43;1.10;;;;;;;18.18;59.03;97014.47;10429449;28;20846;-29
2023/05/08 18:33:10;;;;;;;3.50;0.80;;;;;;;18.16;58.61;97022.03;10444144;28;20029;-30
2023/05/08 18:38:10;;;;;;;2.47;0.73;;;;;;;18.14;58.45;97020.34;10402686;28;20525;-30
2023/05/08 18:43:11;;;;;;;2.53;1.10;;;;;;;18.11;58.20;97017.78;10421438;28;20035;-30
2023/05/08 18:48:11;;;;;;;1.00;0.70;;;;;;;18.14;57.74;97033.88;10424297;28;20532;-30
2023/05/08 18:53:13;;;;;;;3.93;0.63;;;;;;;18.15;57.96;97035.56;10422103;28;20041;-29
2023/05/08 18:58:13;;;;;;;1.98;0.70;;;;;;;18.15;58.02;97035.56;10416788;28;20082;-29
2023/05/08 19:03:14;;;;;;;1.53;0.70;;;;;;;18.19;59.29;97031.34;10419356;28;20075;-29
2023/05/08 19:08:14;;;;;;;2.47;1.23;;;;;;;18.38;59.81;97030.66;10437266;28;20083;-31
2023/05/08 19:13:15;;;;;;;1.40;0.65;;;;;;;18.49;58.93;97027.31;10414086;28;20037;-30
2023/05/08 19:18:16;;;;;;;3.63;0.80;;;;;;;18.37;59.84;97029.81;10431280;28;20025;-30
2023/05/08 19:23:17;;;;;;;1.85;0.82;;;;;;;18.26;59.04;97023.78;10421556;28;20070;-30
2023/05/08 19:28:17;;;;;;;2.17;1.20;;;;;;;18.20;57.94;97031.38;10428293;28;20440;-30
2023/05/08 19:33:19;;;;;;;2.80;1.43;;;;;;;18.16;58.03;97036.41;10422902;28;20288;-30
2023/05/08 19:38:19;;;;;;;2.17;0.70;;;;;;;18.14;57.96;97025.41;10435887;28;20525;-30
2023/05/08 19:43:20;;;;;;;1.70;0.60;;;;;;;18.12;57.61;97032.16;10418011;28;20045;-29
2023/05/08 19:48:20;;;;;;;1.00;0.50;;;;;;;18.11;57.64;97027.94;10409875;28;20037;-30
2023/05/08 19:53:22;;;;;;;1.08;0.50;;;;;;;18.10;57.47;97041.44;10396489;28;20025;-30
2023/05/08 19:58:22;;;;;;;0.57;0.43;;;;;;;18.09;57.64;97044.81;10420288;28;20039;-29
2023/05/08 20:03:22;;;;;;;4.17;0.60;;;;;;;18.08;57.37;97048.19;10400542;28;20047;-29
2023/05/08 20:08:23;;;;;;;0.85;0.50;;;;;;;18.24;59.54;97050.81;10430755;28;20046;-29
2023/05/08 20:13:23;;;;;;;1.40;0.77;;;;;;;18.41;59.85;97053.50;10407170;28;20057;-31
2023/05/08 20:18:24;;;;;;;3.03;0.70;;;;;;;18.45;58.20;97050.13;10411752;28;20046;-31
2023/05/08 20:23:24;;;;;;;1.00;0.57;;;;;;;18.35;59.04;97040.78;10416369;28;20295;-29
2023/05/08 20:28:25;;;;;;;1.93;0.60;;;;;;;18.24;58.96;97047.44;10424223;28;20420;-29
2023/05/08 20:33:25;;;;;;;6.33;1.00;;;;;;;18.22;58.55;97057.56;10425656;28;20049;-29
2023/05/08 20:38:25;;;;;;;2.53;0.70;;;;;;;18.20;58.35;97049.13;10442973;28;20037;-29
2023/05/08 20:43:26;;;;;;;2.13;1.00;;;;;;;18.18;58.10;97044.88;10439634;28;20036;-30
2023/05/08 20:48:26;;;;;;;2.95;1.20;;;;;;;18.17;58.00;97035.56;10421874;28;20037;-31
2023/05/08 20:53:28;;;;;;;1.42;0.55;;;;;;;18.16;57.82;97049.91;10403210;28;20097;-30
2023/05/08 20:58:29;;;;;;;2.42;0.77;;;;;;;18.16;57.67;97049.91;10385327;28;20033;-30
2023/05/08 21:03:29;;;;;;;1.58;0.60;;;;;;;18.16;57.62;97046.56;10388943;28;20026;-30
2023/05/08 21:08:29;;;;;;;2.43;1.00;;;;;;;18.15;57.71;97039.78;10402861;28;20398;-29
2023/05/08 21:13:30;;;;;;;1.03;0.40;;;;;;;18.34;60.29;97037.38;10406781;28;20291;-29
2023/05/08 21:18:31;;;;;;;1.25;0.50;;;;;;;18.47;59.10;97029.03;10405907;28;20033;-30
2023/05/08 21:23:31;;;;;;;0.43;0.43;;;;;;;18.38;59.25;97033.19;10424060;28;20444;-29
2023/05/08 21:28:33;;;;;;;1.57;0.50;;;;;;;18.29;59.37;97022.97;10423229;28;20055;-29
2023/05/08 21:33:33;;;;;;;1.48;0.80;;;;;;;18.22;58.97;97023.75;10405919;28;20053;-30
2023/05/08 21:38:33;;;;;;;1.75;0.80;;;;;;;18.20;58.63;97023.78;10419106;28;20064;-30
2023/05/08 21:43:34;;;;;;;1.13;0.60;;;;;;;18.18;58.29;97020.34;10443616;28;20490;-30
2023/05/08 21:48:35;;;;;;;1.83;0.95;;;;;;;18.16;57.99;97009.38;10421332;28;20086;-29
2023/05/08 21:53:36;;;;;;;1.05;0.70;;;;;;;18.16;58.19;97011.06;10448081;28;20465;-29
2023/05/08 21:58:36;;;;;;;1.70;0.80;;;;;;;18.15;57.83;97000.06;10418490;28;20042;-30
2023/05/08 22:03:36;;;;;;;1.80;0.90;;;;;;;18.15;57.74;96989.13;10403757;28;20040;-29
2023/05/08 22:08:37;;;;;;;2.90;1.00;;;;;;;18.14;57.47;96992.47;10406492;28;20120;-30
2023/05/08 22:13:37;;;;;;;1.73;0.73;;;;;;;18.27;60.99;96994.22;10409543;28;20087;-29
2023/05/08 22:18:38;;;;;;;0.80;0.40;;;;;;;18.43;59.33;96983.38;10421516;28;20034;-29
2023/05/08 22:23:38;;;;;;;1.70;0.33;;;;;;;18.47;59.09;96973.25;10411711;28;20553;-30
2023/05/08 22:28:38;;;;;;;0.30;0.30;;;;;;;18.34;59.72;96970.66;10433025;28;20412;-30
2023/05/08 22:33:39;;;;;;;0.82;0.70;;;;;;;18.25;59.70;96970.56;10428988;28;20034;-29
2023/05/08 22:38:39;;;;;;;1.40;1.05;;;;;;;18.23;59.38;96967.16;10404959;28;20413;-30
2023/05/08 22:43:40;;;;;;;1.47;0.80;;;;;;;18.19;58.75;96960.41;10432250;28;20029;-29
2023/05/08 22:48:40;;;;;;;1.33;0.65;;;;;;;18.17;58.41;96944.34;10403552;28;20116;-30
2023/05/08 22:53:41;;;;;;;1.15;0.60;;;;;;;18.15;58.15;96943.50;10445900;28;20042;-29
2023/05/08 22:58:41;;;;;;;1.70;0.77;;;;;;;18.16;57.93;96945.19;10448203;28;20449;-30
2023/05/08 23:03:41;;;;;;;0.60;0.60;;;;;;;18.14;57.71;96944.31;10412432;28;20034;-30
2023/05/08 23:08:42;;;;;;;1.13;0.60;;;;;;;18.14;57.77;96951.91;10410852;28;20052;-30
2023/05/08 23:13:42;;;;;;;1.23;0.60;;;;;;;18.14;57.77;96946.84;10416026;28;20387;-30
2023/05/08 23:18:43;;;;;;;2.37;0.50;;;;;;;18.31;60.52;96948.66;10425094;28;20572;-31
2023/05/08 23:23:43;;;;;;;1.05;0.65;;;;;;;18.46;59.60;96950.41;10435983;28;20060;-30